createdAt,value
2023-01-13T00:01:41.296Z,89.74
2023-01-13T00:04:13.592Z,89.92
2023-01-13T00:06:41.775Z,90.25
2023-01-13T00:09:09.468Z,90.43
2023-01-13T04:03:57.824Z,95.92
2023-01-13T04:07:11.984Z,95.17
2023-01-13T04:10:01.915Z,95.06
2023-01-13T04:13:05.384Z,94.99
2023-01-13T04:15:40.456Z,94.97
2023-01-13T04:18:21.578Z,94.81
2023-01-13T04:20:59.272Z,94.63
2023-01-13T04:23:30.653Z,94.91
2023-01-13T04:26:01.522Z,94.88
2023-01-13T04:28:29.978Z,94.73
2023-01-13T04:30:57.126Z,94.61
2023-01-13T04:33:28.765Z,94.40
2023-01-13T04:36:12.578Z,94.31
2023-01-13T04:38:43.359Z,94.39
2023-01-13T04:41:13.257Z,94.45
2023-01-13T04:43:45.891Z,94.53
2023-01-13T04:46:14.873Z,94.45
2023-01-13T04:48:42.666Z,94.29
2023-01-13T04:51:09.837Z,94.24
2023-01-13T04:53:36.965Z,94.32
2023-01-13T04:56:14.813Z,94.34
2023-01-13T04:58:50.627Z,94.17
2023-01-13T05:01:20.188Z,94.05
2023-01-13T05:03:55.341Z,94.02
2023-01-13T05:06:28.888Z,93.98
2023-01-13T05:08:56.521Z,93.92
2023-01-13T05:11:45.737Z,93.88
2023-01-13T05:14:31.419Z,93.85
2023-01-13T05:17:05.537Z,93.89
2023-01-13T05:19:35.439Z,94.04
2023-01-13T05:22:27.600Z,94.06
2023-01-13T05:25:15.915Z,94.02
2023-01-13T05:27:48.913Z,94.24
2023-01-13T05:30:20.840Z,94.00
2023-01-13T05:32:50.183Z,93.95
2023-01-13T05:35:23.103Z,94.01
2023-01-13T05:37:50.766Z,94.08
2023-01-13T05:43:22.016Z,94.09
2023-01-13T05:45:51.203Z,94.30
2023-01-13T05:48:25.386Z,94.39
2023-01-13T05:50:55.569Z,94.29
2023-01-13T05:53:23.036Z,94.37
2023-01-13T05:55:51.893Z,94.31
2023-01-13T05:58:19.995Z,94.41
2023-01-13T06:00:48.344Z,94.27
2023-01-13T06:03:20.981Z,94.41
2023-01-13T06:05:51.601Z,94.52
2023-01-13T06:08:20.359Z,94.49
2023-01-13T06:10:54.822Z,94.60
2023-01-13T06:13:23.261Z,94.69
2023-01-13T06:15:56.323Z,94.63
2023-01-13T06:18:25.188Z,94.56
2023-01-13T06:20:53.517Z,94.58
2023-01-13T06:23:28.499Z,94.67
2023-01-13T06:26:06.306Z,94.62
2023-01-13T06:28:38.109Z,94.67
2023-01-13T06:31:07.591Z,94.60
2023-01-13T06:33:50.783Z,94.51
2023-01-13T06:36:27.408Z,94.54
2023-01-13T06:38:58.971Z,94.55
2023-01-13T06:41:45.259Z,94.53
2023-01-13T06:44:12.742Z,94.40
2023-01-13T06:46:39.853Z,94.55
2023-01-13T06:49:13.281Z,94.45
2023-01-13T06:51:42.932Z,94.44
2023-01-13T06:54:12.336Z,94.43
2023-01-13T06:56:39.661Z,94.51
2023-01-13T06:59:08.584Z,94.46
2023-01-13T07:01:36.220Z,94.38
2023-01-13T07:04:03.847Z,94.38
2023-01-13T07:06:33.697Z,94.34
2023-01-13T07:09:01.013Z,94.12
2023-01-13T07:11:32.497Z,94.17
2023-01-13T07:14:22.058Z,94.19
2023-01-13T07:16:49.246Z,94.07
2023-01-13T07:19:24.363Z,94.20
2023-01-13T07:21:57.282Z,94.23
2023-01-13T07:24:25.831Z,94.24
2023-01-13T07:26:56.055Z,94.19
2023-01-13T07:29:32.644Z,93.94
2023-01-13T07:31:59.867Z,93.97
2023-01-13T07:34:27.401Z,93.74
2023-01-13T07:36:55.440Z,93.90
2023-01-13T07:39:23.388Z,93.75
2023-01-13T07:42:13.396Z,93.56
2023-01-13T07:44:43.119Z,93.49
2023-01-13T07:47:11.692Z,93.31
2023-01-13T07:49:45.354Z,93.27
2023-01-13T07:52:23.770Z,93.43
2023-01-13T07:54:55.035Z,93.52
2023-01-13T07:57:22.575Z,93.62
2023-01-13T07:59:51.404Z,93.45
2023-01-13T08:02:22.068Z,93.30
2023-01-13T08:04:50.009Z,93.43
2023-01-13T08:07:18.315Z,93.25
2023-01-13T08:09:46.488Z,93.14
2023-01-13T08:12:33.827Z,93.03
2023-01-13T08:15:11.582Z,93.13
2023-01-13T08:17:42.607Z,93.18
2023-01-13T08:20:13.036Z,92.97
2023-01-13T14:16:59.590Z,90.34
2023-01-13T14:19:37.797Z,89.45
2023-01-13T14:22:08.538Z,89.14
2023-01-13T14:24:38.082Z,88.82
2023-01-13T14:30:36.916Z,88.23
2023-01-13T14:46:02.693Z,86.50
2023-01-13T14:48:38.596Z,85.76
2023-01-13T14:51:12.848Z,85.52
2023-01-13T14:53:53.468Z,85.33
2023-01-13T14:56:53.517Z,85.19
2023-01-13T15:00:13.346Z,84.95
2023-01-13T15:02:42.664Z,84.99
2023-01-13T15:05:18.566Z,85.08
2023-01-13T15:07:52.796Z,85.07
2023-01-13T15:10:24.437Z,85.32
2023-01-13T15:12:54.786Z,85.40
2023-01-13T15:15:36.886Z,85.36
2023-01-13T15:18:15.091Z,85.44
2023-01-13T15:20:56.303Z,85.36
2023-01-13T15:23:24.178Z,85.49
2023-01-13T15:25:54.834Z,85.52
2023-01-13T15:28:27.160Z,85.54
2023-01-13T15:30:57.701Z,85.64
2023-01-13T15:33:25.519Z,85.52
2023-01-13T15:35:57.986Z,85.78
2023-01-13T15:38:26.274Z,85.76
2023-01-13T15:41:00.529Z,85.92
2023-01-13T15:43:48.296Z,85.93
2023-01-13T15:46:35.034Z,85.86
2023-01-13T15:49:13.025Z,86.08
2023-01-13T15:51:42.322Z,86.18
2023-01-13T16:00:27.494Z,86.47
2023-01-13T16:02:55.134Z,86.70
2023-01-13T16:05:24.512Z,86.84
2023-01-13T16:07:54.063Z,86.87
2023-01-13T16:10:33.033Z,87.20
2023-01-13T16:13:06.726Z,87.07
2023-01-13T16:19:50.333Z,87.20
2023-01-13T16:22:47.123Z,87.13
2023-01-13T16:26:47.729Z,87.11
2023-01-13T16:29:15.048Z,87.13
2023-01-13T16:36:09.701Z,88.11
2023-01-13T16:38:36.626Z,88.43
2023-01-13T16:41:07.788Z,88.67
2023-01-13T16:43:42.055Z,88.79
2023-01-13T16:46:27.913Z,88.97
2023-01-13T16:52:25.366Z,89.34
2023-01-13T16:57:40.930Z,89.71
2023-01-13T17:00:12.873Z,89.62
2023-01-13T17:02:42.566Z,89.96
2023-01-13T17:05:13.087Z,90.03
2023-01-13T17:07:45.101Z,90.44
2023-01-13T17:10:21.139Z,90.76
2023-01-13T17:12:48.645Z,90.81
2023-01-13T17:15:18.752Z,90.89
2023-01-13T17:17:51.515Z,91.16
2023-01-13T17:20:20.418Z,91.26
2023-01-13T17:22:57.835Z,91.45
2023-01-13T17:25:27.421Z,91.22
2023-01-13T17:27:55.729Z,91.29
2023-01-13T17:30:28.427Z,91.41
2023-01-13T17:32:55.846Z,91.41
2023-01-13T17:35:24.397Z,91.53
2023-01-13T17:37:54.411Z,91.44
2023-01-13T22:19:07.017Z,91.90
2023-01-13T22:21:35.301Z,91.60
2023-01-13T22:24:03.363Z,91.32
2023-01-13T22:26:30.646Z,91.37
2023-01-13T22:28:57.864Z,91.28
2023-01-13T22:31:25.992Z,91.28
2023-01-13T22:33:58.641Z,91.31
2023-01-13T22:36:27.008Z,91.01
2023-01-13T22:38:56.327Z,90.82
2023-01-13T22:41:26.768Z,90.52
2023-01-13T22:43:55.810Z,90.58
2023-01-13T22:46:28.189Z,90.45
2023-01-13T22:48:55.645Z,90.27
2023-01-13T22:51:22.956Z,90.09
2023-01-13T22:53:50.751Z,89.97
2023-01-13T22:56:22.667Z,89.91
2023-01-13T22:58:57.367Z,89.98
2023-01-13T23:01:26.592Z,90.07
2023-01-13T23:03:57.162Z,90.09
2023-01-13T23:06:25.150Z,89.98
2023-01-13T23:08:52.434Z,89.98
2023-01-13T23:11:20.206Z,90.18
2023-01-13T23:13:47.492Z,90.14
2023-01-13T23:16:17.621Z,90.14
2023-01-13T23:18:47.968Z,90.15
2023-01-13T23:21:20.335Z,90.28
2023-01-13T23:23:47.679Z,90.20
2023-01-13T23:26:15.042Z,90.20
2023-01-13T23:28:42.166Z,90.27
2023-01-13T23:31:12.195Z,90.32
2023-01-13T23:33:40.895Z,90.45
2023-01-13T23:36:08.946Z,90.35
2023-01-13T23:38:36.610Z,90.51
2023-01-13T23:41:07.736Z,90.41
2023-01-13T23:43:38.043Z,90.44
2023-01-13T23:46:07.513Z,90.50
2023-01-13T23:48:38.021Z,90.51
2023-01-13T23:51:10.009Z,90.65
2023-01-13T23:53:40.431Z,90.93
2023-01-13T23:56:10.804Z,90.98
2023-01-13T23:58:38.000Z,91.25
